Погода Арауанна неделю

Томбукту, Мали

25 февраля-02 марта
  • 25февраля
    Сегодня
    +16°
    +33°
    Ясно и безоблачно
    ВремяПогодаТемператураВлажностьДавлениеВетер, м/сВероятность осадков
    00:00Ясно и безоблачно+17°C13 %735 мм3.0 м/с0 %
    03:00Ясно и безоблачно+14°C15 %735 мм2.4 м/с0 %
    06:00Ясно и безоблачно+12°C19 %736 мм3.1 м/с0 %
    09:00Ясно и безоблачно+20°C13 %737 мм2.5 м/с0 %
    12:00Ясно и безоблачно+29°C6 %737 мм4.1 м/с0 %
    15:00Ясно и безоблачно+33°C4 %735 мм3.5 м/с0 %
    18:00Ясно и безоблачно+30°C5 %735 мм2.8 м/с0 %
    21:00Ясно и безоблачно+23°C8 %736 мм3.0 м/с0 %
  • 26февраля
    Понедельник
    +15°
    +34°
    Ясно и безоблачно
    ВремяПогодаТемператураВлажностьДавлениеВетер, м/сВероятность осадков
    00:00Ясно и безоблачно+19°C10 %736 мм4.3 м/с0 %
    03:00Ясно и безоблачно+17°C11 %735 мм5.0 м/с0 %
    06:00Ясно и безоблачно+16°C13 %735 мм5.4 м/с0 %
    09:00Ясно и безоблачно+22°C11 %737 мм3.8 м/с0 %
    12:00Ясно и безоблачно+29°C7 %736 мм3.6 м/с0 %
    15:00Ясно и безоблачно+34°C5 %734 мм2.2 м/с0 %
    18:00Ясно и безоблачно+31°C7 %733 мм2.2 м/с0 %
    21:00Ясно и безоблачно+25°C10 %734 мм3.9 м/с0 %
  • 27февраля
    Вторник
    +13°
    +34°
    Ясно и безоблачно
    ВремяПогодаТемператураВлажностьДавлениеВетер, м/сВероятность осадков
    00:00Ясно и безоблачно+20°C13 %734 мм3.8 м/с0 %
    03:00Ясно и безоблачно+18°C15 %733 мм3.7 м/с0 %
    06:00Ясно и безоблачно+15°C18 %733 мм3.6 м/с0 %
    09:00Ясно и безоблачно+21°C13 %735 мм2.8 м/с0 %
    12:00Ясно и безоблачно+31°C7 %735 мм4.5 м/с0 %
    15:00Ясно и безоблачно+34°C5 %733 мм3.5 м/с0 %
    18:00Ясно и безоблачно+30°C6 %733 мм2.7 м/с0 %
    21:00Ясно и безоблачно+24°C9 %734 мм3.4 м/с0 %
  • 28февраля
    Среда
    +15°
    +33°
    Ясно и безоблачно
    ВремяПогодаТемператураВлажностьДавлениеВетер, м/сВероятность осадков
    00:00Ясно и безоблачно+19°C14 %734 мм3.0 м/с0 %
    03:00Ясно и безоблачно+17°C18 %733 мм3.3 м/с0 %
    06:00Ясно и безоблачно+16°C19 %733 мм4.4 м/с0 %
    09:00Ясно и безоблачно+22°C15 %736 мм4.3 м/с0 %
    12:00Ясно и безоблачно+29°C11 %735 мм6.4 м/с0 %
    15:00Ясно и безоблачно+32°C10 %734 мм6.2 м/с0 %
    18:00Ясно и безоблачно+29°C11 %734 мм5.5 м/с0 %
    21:00Ясно и безоблачно+23°C14 %735 мм5.1 м/с0 %
Мы используем cookies
Соглашаюсь